createdAt,value
2018-10-16T00:01:31.923Z,14.87
2018-10-16T00:04:02.606Z,13.33
2018-10-16T00:06:33.376Z,14.77
2018-10-16T00:09:04.068Z,14.03
2018-10-16T00:11:34.745Z,13.80
2018-10-16T00:14:05.442Z,14.00
2018-10-16T00:16:36.106Z,14.03
2018-10-16T00:19:06.832Z,14.07
2018-10-16T00:21:37.777Z,13.17
2018-10-16T00:24:08.456Z,14.03
2018-10-16T00:26:39.515Z,13.87
2018-10-16T00:29:10.180Z,13.60
2018-10-16T00:31:40.865Z,13.05
2018-10-16T00:34:11.481Z,13.70
2018-10-16T00:36:42.322Z,13.68
2018-10-16T00:39:14.527Z,14.83
2018-10-16T00:41:45.270Z,13.50
2018-10-16T00:44:15.868Z,13.43
2018-10-16T00:46:46.563Z,13.87
2018-10-16T00:49:17.178Z,14.00
2018-10-16T00:51:47.921Z,14.30
2018-10-16T00:54:18.570Z,13.62
2018-10-16T00:56:49.256Z,14.47
2018-10-16T00:59:19.850Z,14.38
2018-10-16T01:01:50.515Z,14.00
2018-10-16T01:04:21.540Z,14.17
2018-10-16T01:06:52.560Z,13.53
2018-10-16T01:09:23.288Z,13.63
2018-10-16T01:11:53.940Z,13.57
2018-10-16T01:14:24.580Z,13.25
2018-10-16T01:16:55.697Z,13.43
2018-10-16T01:19:26.339Z,14.30
2018-10-16T01:21:57.382Z,14.13
2018-10-16T01:24:28.310Z,12.57
2018-10-16T01:26:59.024Z,14.17
2018-10-16T01:29:29.692Z,13.73
2018-10-16T01:32:00.661Z,14.50
2018-10-16T01:34:31.433Z,14.33
2018-10-16T01:37:02.065Z,14.27
2018-10-16T01:39:32.799Z,14.47
2018-10-16T01:42:03.437Z,14.53
2018-10-16T01:44:35.167Z,13.60
2018-10-16T01:47:06.025Z,13.15
2018-10-16T01:49:37.379Z,13.10
2018-10-16T01:52:08.079Z,13.00
2018-10-16T01:54:38.717Z,12.87
2018-10-16T01:57:09.461Z,13.43
2018-10-16T01:59:40.445Z,13.60
2018-10-16T02:02:11.113Z,13.75
2018-10-16T02:04:41.811Z,13.43
2018-10-16T02:07:13.047Z,14.57
2018-10-16T02:09:44.563Z,14.80
2018-10-16T02:12:15.217Z,13.23
2018-10-16T02:14:45.940Z,13.33
2018-10-16T02:17:16.579Z,13.73
2018-10-16T02:19:47.762Z,13.78
2018-10-16T02:22:18.558Z,13.10
2018-10-16T02:24:49.184Z,14.17
2018-10-16T02:27:19.891Z,13.67
2018-10-16T02:29:50.625Z,13.43
2018-10-16T02:32:21.287Z,12.63
2018-10-16T02:34:52.011Z,12.93
2018-10-16T02:37:22.675Z,12.27
2018-10-16T02:39:53.360Z,12.63
2018-10-16T02:42:24.028Z,13.70
2018-10-16T02:44:54.688Z,13.27
2018-10-16T02:47:26.502Z,12.82
2018-10-16T02:49:57.146Z,12.50
2018-10-16T02:52:27.831Z,13.48
2018-10-16T02:54:59.100Z,12.50
2018-10-16T02:57:29.800Z,12.77
2018-10-16T03:00:00.769Z,13.27
2018-10-16T03:02:31.516Z,13.43
2018-10-16T03:05:02.574Z,13.20
2018-10-16T03:07:33.233Z,12.73
2018-10-16T03:10:04.073Z,12.80
2018-10-16T03:12:34.674Z,12.80
2018-10-16T03:15:06.273Z,13.17
2018-10-16T03:17:36.916Z,12.60
2018-10-16T03:20:07.837Z,12.98
2018-10-16T03:22:38.776Z,13.10
2018-10-16T03:25:12.023Z,13.37
2018-10-16T03:27:42.953Z,12.73
2018-10-16T03:30:13.961Z,12.43
2018-10-16T03:32:44.675Z,12.73
2018-10-16T03:35:15.352Z,13.37
2018-10-16T03:37:46.006Z,11.90
2018-10-16T03:40:16.776Z,12.37
2018-10-16T03:42:47.414Z,13.50
2018-10-16T03:45:18.100Z,13.20
2018-10-16T03:47:48.754Z,12.47
2018-10-16T03:50:19.443Z,13.58
2018-10-16T03:52:50.102Z,12.97
2018-10-16T03:55:21.121Z,13.33
2018-10-16T03:57:52.058Z,13.30
2018-10-16T04:00:22.712Z,14.07
2018-10-16T04:02:53.892Z,14.13
2018-10-16T04:05:24.546Z,14.50
2018-10-16T04:07:55.233Z,13.97
2018-10-16T04:10:25.941Z,13.97
2018-10-16T04:12:56.664Z,14.00
2018-10-16T04:15:27.353Z,14.13
2018-10-16T04:17:58.472Z,13.97
2018-10-16T04:20:29.145Z,13.90
2018-10-16T04:22:59.837Z,13.70
2018-10-16T04:25:30.399Z,13.93
2018-10-16T04:28:01.217Z,14.30
2018-10-16T04:30:31.927Z,13.70
2018-10-16T04:33:02.549Z,13.25
2018-10-16T04:35:33.190Z,12.70
2018-10-16T04:38:03.841Z,12.80
2018-10-16T04:40:34.623Z,12.70
2018-10-16T04:43:06.268Z,13.35
2018-10-16T04:45:36.808Z,13.00
2018-10-16T04:48:07.920Z,13.07
2018-10-16T04:50:38.872Z,12.93
2018-10-16T04:53:09.526Z,13.03
2018-10-16T04:55:40.537Z,13.48
2018-10-16T04:58:11.213Z,14.55
2018-10-16T05:00:41.858Z,14.93
2018-10-16T05:03:12.517Z,14.13
2018-10-16T05:05:43.193Z,15.80
2018-10-16T05:08:13.858Z,16.47
2018-10-16T05:10:44.485Z,15.67
2018-10-16T05:13:15.248Z,15.40
2018-10-16T05:15:45.838Z,15.67
2018-10-16T05:18:16.479Z,17.15
2018-10-16T05:20:47.104Z,17.63
2018-10-16T05:23:17.805Z,15.80
2018-10-16T05:25:48.451Z,16.02
2018-10-16T05:28:19.118Z,15.10
2018-10-16T05:30:50.125Z,14.65
2018-10-16T05:33:20.791Z,15.63
2018-10-16T05:35:52.077Z,16.23
2018-10-16T05:38:23.269Z,16.97
2018-10-16T05:40:54.047Z,17.73
2018-10-16T05:43:24.938Z,16.87
2018-10-16T05:45:55.570Z,17.17
2018-10-16T05:48:26.180Z,18.00
2018-10-16T05:50:56.942Z,17.20
2018-10-16T05:53:27.509Z,16.90
2018-10-16T05:56:06.342Z,16.83
2018-10-16T05:58:37.401Z,16.27
2018-10-16T06:01:08.064Z,17.53
2018-10-16T06:03:38.711Z,16.17
2018-10-16T06:06:09.898Z,16.00
2018-10-16T06:08:41.179Z,16.63
2018-10-16T06:11:11.784Z,16.90
2018-10-16T06:13:42.568Z,18.17
2018-10-16T06:16:13.140Z,19.02
2018-10-16T06:18:43.802Z,18.17
2018-10-16T06:21:14.451Z,17.10
2018-10-16T06:23:45.103Z,17.93
2018-10-16T06:26:16.145Z,18.07
2018-10-16T06:28:46.755Z,18.07
2018-10-16T06:31:17.820Z,18.97
2018-10-16T06:33:48.539Z,19.80
2018-10-16T06:36:19.133Z,18.02
2018-10-16T06:38:50.352Z,19.33
2018-10-16T06:41:21.135Z,18.90
2018-10-16T06:43:51.712Z,19.40
2018-10-16T06:46:22.339Z,19.00
2018-10-16T06:48:53.716Z,19.40
2018-10-16T06:51:24.234Z,19.33
2018-10-16T06:53:54.849Z,19.03
2018-10-16T06:56:25.553Z,18.83
2018-10-16T06:58:56.717Z,18.23
2018-10-16T07:01:27.921Z,18.20
2018-10-16T07:03:58.609Z,18.95
2018-10-16T07:06:29.279Z,17.92
2018-10-16T07:09:00.267Z,18.90
2018-10-16T07:11:31.118Z,18.03
2018-10-16T07:14:01.776Z,16.77
2018-10-16T07:16:32.577Z,17.73
2018-10-16T07:19:03.311Z,18.27
2018-10-16T07:21:34.128Z,18.70
2018-10-16T07:24:05.062Z,19.70
2018-10-16T07:26:35.611Z,19.07
2018-10-16T07:29:07.078Z,19.00
2018-10-16T07:31:37.809Z,18.93
2018-10-16T07:34:08.459Z,20.77
2018-10-16T07:36:39.641Z,20.40
2018-10-16T07:39:12.531Z,21.03
2018-10-16T07:41:43.614Z,19.27
2018-10-16T07:44:14.329Z,19.50
2018-10-16T07:46:45.009Z,21.07
2018-10-16T07:49:15.674Z,20.10
2018-10-16T07:51:46.309Z,19.57
2018-10-16T07:54:17.351Z,19.00
2018-10-16T07:56:48.256Z,19.57
2018-10-16T07:59:19.074Z,19.97
2018-10-16T08:01:49.714Z,19.27
2018-10-16T08:04:20.407Z,20.63
2018-10-16T08:06:51.037Z,20.43
2018-10-16T08:09:21.664Z,19.87
2018-10-16T08:11:52.801Z,20.43
2018-10-16T08:14:23.480Z,19.77
2018-10-16T08:16:54.087Z,18.83
2018-10-16T08:19:24.786Z,19.73
2018-10-16T08:21:55.738Z,18.97
2018-10-16T08:24:26.823Z,19.73
2018-10-16T08:26:57.966Z,19.48
2018-10-16T08:29:28.590Z,19.70
2018-10-16T08:31:59.289Z,21.90
2018-10-16T08:34:30.151Z,21.27
2018-10-16T08:37:01.325Z,21.13
2018-10-16T08:39:34.157Z,21.97
2018-10-16T08:42:30.028Z,21.90
2018-10-16T08:45:26.888Z,23.97
2018-10-16T08:48:33.294Z,21.70
2018-10-16T08:51:54.015Z,22.80
2018-10-16T08:54:24.834Z,21.63
2018-10-16T08:56:55.477Z,21.27
2018-10-16T08:59:26.266Z,22.63
2018-10-16T09:01:56.981Z,22.35
2018-10-16T09:04:28.108Z,23.33
2018-10-16T09:06:58.765Z,22.17
2018-10-16T09:09:29.606Z,22.00
2018-10-16T09:12:00.891Z,22.83
2018-10-16T09:14:31.903Z,24.57
2018-10-16T09:17:02.518Z,24.10
2018-10-16T09:19:33.591Z,23.50
2018-10-16T09:22:04.296Z,25.08
2018-10-16T09:24:35.050Z,24.67
2018-10-16T09:27:05.667Z,25.12
2018-10-16T09:29:36.311Z,23.92
2018-10-16T09:32:07.222Z,24.45
2018-10-16T09:34:37.849Z,24.40
2018-10-16T09:37:08.585Z,24.07
2018-10-16T09:39:39.271Z,25.23
2018-10-16T09:42:09.838Z,24.70
2018-10-16T09:44:40.819Z,26.30
2018-10-16T09:47:11.514Z,24.92
2018-10-16T09:49:42.225Z,26.20
2018-10-16T09:52:12.806Z,25.72
2018-10-16T09:54:43.418Z,25.35
2018-10-16T09:57:14.126Z,24.73
2018-10-16T09:59:44.815Z,26.03
2018-10-16T10:02:15.487Z,24.67
2018-10-16T10:04:46.146Z,25.00
2018-10-16T10:07:16.860Z,24.33
2018-10-16T10:09:47.493Z,25.92
2018-10-16T10:12:18.279Z,24.57
2018-10-16T10:14:49.020Z,24.70
2018-10-16T10:17:19.724Z,25.33
2018-10-16T10:19:50.384Z,27.07
2018-10-16T10:22:21.147Z,26.03
2018-10-16T10:24:52.061Z,27.13
2018-10-16T10:27:22.795Z,27.00
2018-10-16T10:29:53.512Z,27.45
2018-10-16T10:32:24.678Z,28.37
2018-10-16T10:34:55.349Z,27.23
2018-10-16T10:37:25.948Z,28.20
2018-10-16T10:39:57.538Z,26.68
2018-10-16T10:42:28.289Z,27.43
2018-10-16T10:44:58.954Z,27.40
2018-10-16T10:47:29.602Z,28.57
2018-10-16T10:50:00.379Z,27.03
2018-10-16T10:52:30.859Z,23.92
2018-10-16T10:55:01.521Z,26.10
2018-10-16T10:57:32.621Z,24.98
2018-10-16T11:00:03.314Z,24.93
2018-10-16T11:02:33.946Z,25.57
2018-10-16T11:05:04.562Z,25.20
2018-10-16T11:07:35.266Z,25.67
2018-10-16T11:10:06.316Z,27.43
2018-10-16T11:12:37.255Z,29.37
2018-10-16T11:15:08.935Z,27.23
2018-10-16T11:17:40.264Z,26.57
2018-10-16T11:20:13.323Z,26.90
2018-10-16T11:22:44.005Z,25.72
2018-10-16T11:25:14.989Z,25.37
2018-10-16T11:27:46.264Z,27.25
2018-10-16T11:30:17.147Z,25.27
2018-10-16T11:32:47.735Z,26.67
2018-10-16T11:35:18.340Z,27.83
2018-10-16T11:37:48.993Z,26.73
2018-10-16T11:40:19.623Z,27.73
2018-10-16T11:42:50.624Z,28.12
2018-10-16T11:45:21.305Z,27.03
2018-10-16T11:47:51.996Z,25.77
2018-10-16T11:50:26.772Z,27.53
2018-10-16T11:53:00.910Z,28.00
2018-10-16T11:55:32.196Z,27.43
2018-10-16T11:58:02.956Z,28.43
2018-10-16T12:00:33.650Z,29.50
2018-10-16T12:03:04.248Z,28.80
2018-10-16T12:05:35.025Z,29.47
2018-10-16T12:08:05.742Z,29.65
2018-10-16T12:10:36.363Z,30.05
2018-10-16T12:13:07.807Z,27.93
2018-10-16T12:15:39.740Z,26.93
2018-10-16T12:18:15.364Z,27.22
2018-10-16T12:21:21.290Z,27.67
2018-10-16T12:23:52.485Z,25.60
2018-10-16T12:26:23.639Z,26.42
2018-10-16T12:28:54.684Z,25.52
2018-10-16T12:31:25.804Z,24.13
2018-10-16T12:33:56.490Z,23.00
2018-10-16T12:36:27.107Z,24.60
2018-10-16T12:38:57.770Z,21.97
2018-10-16T12:41:28.664Z,23.27
2018-10-16T12:43:59.333Z,24.87
2018-10-16T12:46:30.027Z,25.93
2018-10-16T12:49:00.653Z,22.77
2018-10-16T12:51:31.303Z,24.90
2018-10-16T12:54:02.038Z,23.60
2018-10-16T12:56:32.632Z,21.67
2018-10-16T12:59:03.320Z,21.20
2018-10-16T13:01:34.090Z,23.03
2018-10-16T13:04:04.979Z,21.70
2018-10-16T13:06:35.738Z,22.90
2018-10-16T13:09:08.756Z,20.62
2018-10-16T13:11:39.644Z,21.10
2018-10-16T13:14:10.337Z,22.87
2018-10-16T13:16:41.333Z,22.10
2018-10-16T13:19:12.032Z,23.07
2018-10-16T13:21:42.992Z,23.43
2018-10-16T13:24:13.650Z,23.20
2018-10-16T13:26:44.240Z,22.83
2018-10-16T13:29:14.967Z,21.47
2018-10-16T13:31:45.496Z,19.57
2018-10-16T13:34:16.223Z,19.23
2018-10-16T13:36:46.868Z,20.60
2018-10-16T13:39:17.499Z,19.17
2018-10-16T13:41:48.386Z,19.83
2018-10-16T13:44:18.992Z,18.30
2018-10-16T13:46:49.652Z,19.10
2018-10-16T13:49:20.308Z,20.88
2018-10-16T13:51:50.951Z,18.57
2018-10-16T13:54:21.653Z,18.43
2018-10-16T13:56:52.309Z,19.47
2018-10-16T13:59:22.914Z,18.03
2018-10-16T14:01:53.591Z,20.37
2018-10-16T14:04:24.543Z,22.13
2018-10-16T14:06:55.218Z,22.97
2018-10-16T14:09:25.819Z,23.27
2018-10-16T14:11:56.474Z,23.27
2018-10-16T14:14:27.120Z,21.97
2018-10-16T14:16:57.846Z,22.43
2018-10-16T14:19:28.479Z,23.87
2018-10-16T14:21:59.426Z,25.03
2018-10-16T14:24:31.109Z,24.60
2018-10-16T14:27:01.876Z,24.47
2018-10-16T14:29:32.536Z,25.57
2018-10-16T14:32:03.284Z,25.70
2018-10-16T14:34:34.168Z,26.03
2018-10-16T14:37:04.900Z,25.15
2018-10-16T14:39:35.542Z,25.10
2018-10-16T14:42:07.192Z,25.68
2018-10-16T14:44:37.868Z,24.40
2018-10-16T14:47:08.821Z,23.17
2018-10-16T14:49:40.383Z,23.43
2018-10-16T14:52:14.778Z,21.30
2018-10-16T14:54:45.388Z,22.47
2018-10-16T14:57:16.085Z,22.73
2018-10-16T14:59:46.797Z,24.18
2018-10-16T15:02:17.470Z,25.37
2018-10-16T15:04:48.096Z,25.95
2018-10-16T15:07:18.774Z,26.30
2018-10-16T15:09:49.467Z,25.60
2018-10-16T15:12:31.137Z,26.70
2018-10-16T15:15:02.977Z,26.90
2018-10-16T15:17:33.720Z,25.43
2018-10-16T15:20:04.740Z,24.12
2018-10-16T15:22:35.302Z,23.27
2018-10-16T15:25:06.946Z,22.00
2018-10-16T15:27:37.644Z,22.37
2018-10-16T15:30:10.018Z,22.60
2018-10-16T15:35:12.272Z,25.37
2018-10-16T15:37:42.993Z,28.67
2018-10-16T15:40:13.840Z,27.48
2018-10-16T15:42:44.373Z,27.07
2018-10-16T15:45:15.121Z,30.93
2018-10-16T15:47:46.582Z,29.50
2018-10-16T15:50:17.316Z,26.63
2018-10-16T15:52:49.067Z,24.50
2018-10-16T15:55:19.816Z,27.43
2018-10-16T15:57:50.685Z,26.02
2018-10-16T16:00:21.162Z,25.60
2018-10-16T16:02:51.878Z,27.73
2018-10-16T16:05:22.501Z,24.67
2018-10-16T16:07:53.246Z,25.03
2018-10-16T16:10:23.971Z,25.20
2018-10-16T16:12:54.683Z,23.43
2018-10-16T16:15:25.311Z,26.37
2018-10-16T16:17:56.005Z,27.50
2018-10-16T16:20:26.659Z,28.13
2018-10-16T16:22:57.383Z,27.20
2018-10-16T16:25:28.460Z,28.35
2018-10-16T16:27:59.237Z,25.73
2018-10-16T16:30:30.232Z,24.10
2018-10-16T16:33:00.942Z,24.03
2018-10-16T16:35:31.913Z,23.53
2018-10-16T16:38:02.618Z,23.73
2018-10-16T16:40:33.257Z,23.50
2018-10-16T16:43:03.907Z,26.63
2018-10-16T16:45:34.576Z,24.67
2018-10-16T16:48:05.263Z,24.50
2018-10-16T16:50:35.984Z,25.75
2018-10-16T16:53:06.980Z,25.37
2018-10-16T16:55:37.608Z,25.83
2018-10-16T16:58:08.441Z,25.10
2018-10-16T17:00:38.983Z,26.50
2018-10-16T17:03:09.640Z,27.97
2018-10-16T17:05:40.241Z,29.48
2018-10-16T17:08:10.998Z,27.05
2018-10-16T17:10:41.644Z,28.63
2018-10-16T17:13:12.379Z,26.57
2018-10-16T17:15:43.214Z,26.43
2018-10-16T17:18:14.066Z,25.67
2018-10-16T17:20:45.748Z,29.87
2018-10-16T17:23:16.572Z,28.60
2018-10-16T17:25:47.937Z,25.92
2018-10-16T17:28:18.514Z,29.10
2018-10-16T17:30:49.232Z,29.67
2018-10-16T17:33:19.956Z,31.10
2018-10-16T17:35:50.649Z,31.40
2018-10-16T17:38:21.891Z,29.63
2018-10-16T17:40:53.182Z,31.10
2018-10-16T17:43:27.497Z,32.23
2018-10-16T17:45:58.225Z,30.80
2018-10-16T17:48:29.277Z,30.70
2018-10-16T17:50:59.974Z,30.37
2018-10-16T17:53:31.043Z,30.63
2018-10-16T17:56:01.794Z,29.40
2018-10-16T17:58:32.695Z,30.37
2018-10-16T18:01:03.346Z,31.07
2018-10-16T18:03:34.054Z,33.27
2018-10-16T18:06:05.559Z,30.43
2018-10-16T18:08:36.947Z,29.93
2018-10-16T18:11:08.181Z,30.50
2018-10-16T18:13:38.913Z,30.07
2018-10-16T18:16:09.609Z,29.63
2018-10-16T18:18:40.296Z,30.50
2018-10-16T18:21:11.012Z,30.27
2018-10-16T18:23:41.666Z,30.40
2018-10-16T18:26:12.458Z,30.30
2018-10-16T18:28:43.285Z,30.53
2018-10-16T18:31:13.929Z,30.03
2018-10-16T18:33:44.728Z,30.43
2018-10-16T18:36:15.407Z,31.03
2018-10-16T18:38:46.186Z,29.30
2018-10-16T18:41:16.898Z,27.03
2018-10-16T18:43:47.648Z,30.33
2018-10-16T18:46:18.416Z,31.35
2018-10-16T18:48:49.142Z,30.17
2018-10-16T18:51:19.833Z,28.80
2018-10-16T18:53:50.590Z,29.63
2018-10-16T18:56:21.909Z,29.33
2018-10-16T18:58:52.664Z,28.55
2018-10-16T19:01:23.365Z,30.93
2018-10-16T19:03:54.066Z,29.30
2018-10-16T19:06:24.898Z,29.55
2018-10-16T19:08:55.568Z,31.53
2018-10-16T19:11:26.281Z,32.40
2018-10-16T19:13:57.148Z,30.03
2018-10-16T19:16:27.774Z,30.30
2018-10-16T19:18:58.735Z,29.97
2018-10-16T19:21:29.444Z,28.62
2018-10-16T19:24:00.221Z,25.88
2018-10-16T19:26:31.048Z,27.13
2018-10-16T19:29:01.697Z,29.40
2018-10-16T19:31:32.886Z,31.17
2018-10-16T19:34:03.663Z,31.43
2018-10-16T19:36:34.444Z,33.83
2018-10-16T19:39:06.074Z,30.57
2018-10-16T19:41:36.748Z,32.07
2018-10-16T19:44:07.498Z,34.53
2018-10-16T19:46:38.218Z,32.58
2018-10-16T19:49:09.175Z,35.93
2018-10-16T19:51:39.970Z,34.30
2018-10-16T19:54:10.691Z,33.60
2018-10-16T19:56:41.691Z,32.03
2018-10-16T19:59:13.658Z,33.50
2018-10-16T20:01:44.315Z,32.37
2018-10-16T20:04:15.070Z,32.90
2018-10-16T20:06:45.769Z,33.83
2018-10-16T20:09:16.597Z,34.07
2018-10-16T20:11:47.349Z,34.88
2018-10-16T20:14:18.080Z,32.73
2018-10-16T20:16:48.664Z,33.83
2018-10-16T20:19:19.742Z,34.07
2018-10-16T20:21:50.498Z,32.97
2018-10-16T20:24:21.254Z,32.87
2018-10-16T20:26:51.958Z,33.67
2018-10-16T20:29:22.784Z,34.15
2018-10-16T20:31:53.509Z,31.65
2018-10-16T20:34:24.162Z,30.85
2018-10-16T20:36:55.254Z,31.97
2018-10-16T20:39:26.070Z,31.03
2018-10-16T20:41:57.777Z,31.50
2018-10-16T20:44:28.405Z,32.10
2018-10-16T20:46:59.510Z,33.43
2018-10-16T20:49:30.303Z,31.63
2018-10-16T20:52:01.378Z,33.67
2018-10-16T20:54:32.084Z,32.53
2018-10-16T20:57:02.791Z,31.12
2018-10-16T20:59:33.594Z,30.10
2018-10-16T21:02:04.340Z,28.83
2018-10-16T21:04:35.072Z,30.03
2018-10-16T21:07:05.923Z,30.53
2018-10-16T21:09:36.459Z,32.80
2018-10-16T21:12:07.271Z,32.00
2018-10-16T21:14:37.894Z,30.65
2018-10-16T21:17:08.516Z,31.60
2018-10-16T21:19:39.209Z,31.30
2018-10-16T21:22:10.069Z,30.17
2018-10-16T21:24:40.687Z,30.20
2018-10-16T21:27:12.624Z,30.07
2018-10-16T21:29:43.300Z,28.13
2018-10-16T21:32:14.044Z,29.73
2018-10-16T21:34:44.790Z,32.10
2018-10-16T21:37:16.005Z,30.80
2018-10-16T21:39:46.753Z,30.35
2018-10-16T21:42:17.753Z,28.20
2018-10-16T21:44:48.424Z,29.03
2018-10-16T21:47:19.104Z,29.03
2018-10-16T21:49:50.618Z,29.87
2018-10-16T21:52:21.260Z,28.87
2018-10-16T21:57:22.657Z,30.40
2018-10-16T21:59:53.306Z,28.67
2018-10-16T22:02:41.494Z,28.45
2018-10-16T22:05:12.650Z,27.57
2018-10-16T22:07:43.622Z,29.37
2018-10-16T22:10:14.417Z,28.75
2018-10-16T22:12:46.935Z,27.93
2018-10-16T22:15:18.264Z,27.47
2018-10-16T22:17:49.365Z,27.32
2018-10-16T22:20:20.138Z,26.07
2018-10-16T22:22:50.809Z,26.40
2018-10-16T22:25:21.612Z,26.90
2018-10-16T22:27:52.365Z,26.57
2018-10-16T22:30:23.437Z,27.03
2018-10-16T22:32:54.113Z,26.70
2018-10-16T22:35:24.810Z,26.30
2018-10-16T22:37:55.440Z,25.60
2018-10-16T22:40:26.116Z,27.05
2018-10-16T22:42:56.971Z,29.27
2018-10-16T22:45:27.674Z,27.17
2018-10-16T22:47:59.237Z,29.52
2018-10-16T22:50:30.443Z,28.50
2018-10-16T22:53:01.172Z,29.57
2018-10-16T22:55:34.838Z,30.43
2018-10-16T22:58:05.593Z,31.17
2018-10-16T23:00:36.359Z,31.57
2018-10-16T23:03:07.131Z,28.67
2018-10-16T23:05:37.817Z,27.15
2018-10-16T23:08:09.609Z,27.37
2018-10-16T23:10:40.861Z,25.97
2018-10-16T23:13:12.144Z,26.23
2018-10-16T23:15:44.005Z,26.60
2018-10-16T23:18:15.888Z,26.30
2018-10-16T23:20:51.167Z,26.40
2018-10-16T23:23:22.108Z,24.73
2018-10-16T23:25:54.073Z,23.40
2018-10-16T23:28:25.207Z,23.05
2018-10-16T23:30:56.617Z,22.15
2018-10-16T23:33:29.516Z,25.57
2018-10-16T23:36:01.685Z,24.35
2018-10-16T23:38:33.020Z,23.47
2018-10-16T23:41:04.251Z,23.50
2018-10-16T23:43:36.446Z,23.47
2018-10-16T23:46:11.572Z,22.35
2018-10-16T23:48:44.616Z,21.62
2018-10-16T23:51:15.825Z,22.43
2018-10-16T23:53:47.674Z,23.27
2018-10-16T23:56:18.615Z,23.63
2018-10-16T23:58:50.848Z,26.17
